createdAt,value
2023-05-13T00:01:13.381Z,93732.25
2023-05-13T00:06:25.024Z,93731.69
2023-05-13T00:11:27.100Z,93732.88
2023-05-13T00:16:28.861Z,93723.72
2023-05-13T00:21:32.377Z,93717.09
2023-05-13T00:26:34.020Z,93718.75
2023-05-13T00:31:35.677Z,93728.34
2023-05-13T00:36:48.870Z,93712.66
2023-05-13T00:41:50.442Z,93713.56
2023-05-13T00:46:52.051Z,93719.47
2023-05-13T00:51:55.108Z,93726.25
2023-05-13T00:57:00.163Z,93730.53
2023-05-13T01:02:11.118Z,93729.34
2023-05-13T01:07:44.695Z,93740.03
2023-05-13T01:12:46.991Z,93735.03
2023-05-13T01:17:55.524Z,93741.31
2023-05-13T01:22:59.822Z,93737.25
2023-05-13T01:28:02.742Z,93733.88
2023-05-13T01:33:05.907Z,93737.16
2023-05-13T01:38:13.116Z,93734.69
2023-05-13T01:43:17.133Z,93733.88
2023-05-13T01:48:18.707Z,93728.72
2023-05-13T01:53:24.037Z,93733.06
2023-05-13T01:58:25.809Z,93735.25
2023-05-13T02:03:27.525Z,93732.88
2023-05-13T02:08:36.071Z,93737.69
2023-05-13T02:13:37.710Z,93741.56
2023-05-13T02:18:39.312Z,93732.06
2023-05-13T02:23:42.295Z,93735.97
2023-05-13T02:28:44.654Z,93743.91
2023-05-13T02:33:46.240Z,93734.16
2023-05-13T02:38:49.252Z,93725.00
2023-05-13T02:43:50.788Z,93733.88
2023-05-13T02:48:52.361Z,93725.16
2023-05-13T02:53:55.391Z,93724.53
2023-05-13T02:58:58.275Z,93721.44
2023-05-13T03:04:01.947Z,93725.44
2023-05-13T03:09:04.928Z,93729.84
2023-05-13T03:14:06.478Z,93731.50
2023-05-13T03:24:24.948Z,93728.94
2023-05-13T03:29:26.597Z,93735.44
2023-05-13T03:34:29.572Z,93741.25
2023-05-13T03:39:32.517Z,93738.66
2023-05-13T03:44:37.960Z,93741.72
2023-05-13T03:49:41.122Z,93745.25
2023-05-13T03:54:46.548Z,93746.50
2023-05-13T03:59:50.477Z,93748.38
2023-05-13T04:04:52.198Z,93754.69
2023-05-13T04:09:55.321Z,93749.56
2023-05-13T04:14:57.098Z,93740.41
2023-05-13T04:19:58.676Z,93756.91
2023-05-13T04:25:19.986Z,93752.00
2023-05-13T04:30:22.063Z,93761.28
2023-05-13T04:35:24.175Z,93764.75
2023-05-13T04:40:27.243Z,93765.59
2023-05-13T04:45:29.216Z,93772.31
2023-05-13T04:50:30.790Z,93782.53
2023-05-13T04:55:34.150Z,93774.38
2023-05-13T05:00:35.765Z,93776.75
2023-05-13T05:05:37.383Z,93783.53
2023-05-13T05:10:40.347Z,93780.69
2023-05-13T05:15:41.952Z,93792.31
2023-05-13T05:20:43.547Z,93793.16
2023-05-13T05:25:49.835Z,93808.81
2023-05-13T05:30:57.906Z,93814.94
2023-05-13T05:36:06.202Z,93806.72
2023-05-13T05:41:09.566Z,93815.41
2023-05-13T05:46:21.797Z,93821.50
2023-05-13T05:51:23.432Z,93813.94
2023-05-13T05:56:26.371Z,93817.50
2023-05-13T06:01:30.779Z,93825.38
2023-05-13T06:06:32.547Z,93824.22
2023-05-13T06:11:38.036Z,93831.16
2023-05-13T06:16:39.645Z,93834.81
2023-05-13T06:21:42.707Z,93826.22
2023-05-13T06:26:53.314Z,93842.81
2023-05-13T06:31:57.620Z,93837.25
2023-05-13T06:37:00.360Z,93834.56
2023-05-13T06:42:03.599Z,93838.59
2023-05-13T06:47:05.511Z,93834.72
2023-05-13T06:52:07.271Z,93832.75
2023-05-13T06:57:10.333Z,93828.84
2023-05-13T07:02:12.329Z,93832.75
2023-05-13T07:07:13.921Z,93834.03
2023-05-13T07:12:16.949Z,93832.91
2023-05-13T07:17:18.573Z,93840.81
2023-05-13T07:22:20.153Z,93832.06
2023-05-13T07:27:23.182Z,93837.50
2023-05-13T07:32:24.739Z,93840.31
2023-05-13T07:37:26.291Z,93849.88
2023-05-13T07:42:32.513Z,93845.53
2023-05-13T07:47:34.136Z,93844.47
2023-05-13T07:52:35.794Z,93848.50
2023-05-13T08:02:59.614Z,93858.31
2023-05-13T08:08:01.299Z,93867.59
2023-05-13T08:13:23.234Z,93866.31
2023-05-13T08:18:25.207Z,93871.53
2023-05-13T08:23:40.276Z,93860.00
2023-05-13T08:33:51.765Z,93860.19
2023-05-13T08:38:55.531Z,93861.00
2023-05-13T08:43:59.489Z,93866.97
2023-05-13T08:49:01.921Z,93861.97
2023-05-13T08:54:03.794Z,93877.69
2023-05-13T08:59:09.725Z,93883.75
2023-05-13T09:04:13.799Z,93875.38
2023-05-13T09:09:15.367Z,93882.13
2023-05-13T09:14:33.549Z,93886.03
2023-05-13T09:19:36.228Z,93883.97
2023-05-13T09:24:39.049Z,93886.88
2023-05-13T09:29:42.009Z,93891.84
2023-05-13T09:34:47.679Z,93885.22
2023-05-13T09:39:52.476Z,93886.56
2023-05-13T09:44:55.719Z,93884.88
2023-05-13T09:49:57.351Z,93885.75
2023-05-13T09:55:00.042Z,93884.78
2023-05-13T10:00:05.937Z,93878.75
2023-05-13T10:05:09.130Z,93891.22
2023-05-13T10:10:11.369Z,93900.84
2023-05-13T10:15:29.933Z,93905.75
2023-05-13T10:20:32.171Z,93895.28
2023-05-13T10:25:33.824Z,93896.31
2023-05-13T10:30:38.063Z,93896.91
2023-05-13T10:35:50.300Z,93899.84
2023-05-13T10:41:10.066Z,93894.38
2023-05-13T10:46:24.357Z,93907.00
2023-05-13T10:51:29.418Z,93902.41
2023-05-13T10:56:30.971Z,93916.47
2023-05-13T11:01:44.375Z,93911.84
2023-05-13T11:06:56.740Z,93918.13
2023-05-13T11:11:59.928Z,93922.06
2023-05-13T11:17:12.495Z,93910.94
2023-05-13T11:22:19.330Z,93912.38
2023-05-13T11:27:21.359Z,93908.53
2023-05-13T11:32:54.915Z,93906.94
2023-05-13T11:38:00.009Z,93918.03
2023-05-13T11:43:05.433Z,93907.75
2023-05-13T11:48:28.027Z,93906.63
2023-05-13T11:53:29.610Z,93908.09
2023-05-13T11:58:32.380Z,93917.03
2023-05-13T12:03:49.390Z,93916.56
2023-05-13T12:08:52.410Z,93916.72
2023-05-13T12:13:54.658Z,93924.22
2023-05-13T12:18:59.813Z,93917.41
2023-05-13T12:24:16.110Z,93931.09
2023-05-13T12:29:17.684Z,93922.69
2023-05-13T12:34:35.223Z,93926.69
2023-05-13T12:39:39.191Z,93927.06
2023-05-13T12:44:42.140Z,93917.38
2023-05-13T12:49:57.383Z,93921.72
2023-05-13T12:54:58.975Z,93916.13
2023-05-13T13:00:00.527Z,93917.34
2023-05-13T13:05:05.881Z,93922.09
2023-05-13T13:10:08.544Z,93901.81
2023-05-13T13:15:11.190Z,93910.75
2023-05-13T13:20:14.138Z,93913.47
2023-05-13T13:25:18.161Z,93912.44
2023-05-13T13:30:20.064Z,93903.03
2023-05-13T13:35:23.216Z,93915.03
2023-05-13T13:40:27.090Z,93909.97
2023-05-13T13:45:36.104Z,93906.75
2023-05-13T13:50:39.155Z,93903.66
2023-05-13T13:55:42.875Z,93908.41
2023-05-13T14:00:44.430Z,93903.88
2023-05-13T14:05:48.212Z,93911.09
2023-05-13T14:10:50.564Z,93906.78
2023-05-13T14:15:53.599Z,93904.97
2023-05-13T14:20:56.657Z,93894.50
2023-05-13T14:25:58.252Z,93884.38
2023-05-13T14:30:59.864Z,93882.03
2023-05-13T14:36:05.338Z,93879.22
2023-05-13T14:41:08.356Z,93883.78
2023-05-13T14:46:50.902Z,93880.19
2023-05-13T14:51:56.047Z,93882.81
2023-05-13T14:56:59.767Z,93878.75
2023-05-13T15:02:02.537Z,93883.50
2023-05-13T15:07:07.192Z,93879.63
2023-05-13T15:12:12.280Z,93877.25
2023-05-13T15:17:15.891Z,93872.59
2023-05-13T15:22:20.398Z,93885.63
2023-05-13T15:27:23.467Z,93872.88
2023-05-13T15:32:27.177Z,93867.97
2023-05-13T15:37:30.234Z,93872.31
2023-05-13T15:42:33.853Z,93876.28
2023-05-13T15:47:35.722Z,93870.97
2023-05-13T15:52:46.582Z,93861.69
2023-05-13T15:57:50.183Z,93860.91
2023-05-13T16:02:52.325Z,93850.03
2023-05-13T16:07:55.982Z,93843.97
2023-05-13T16:12:57.554Z,93857.69
2023-05-13T16:17:59.223Z,93852.66
2023-05-13T16:23:03.572Z,93851.94
2023-05-13T16:28:08.603Z,93858.69
2023-05-13T16:33:10.230Z,93850.53
2023-05-13T16:38:13.262Z,93853.25
2023-05-13T16:43:14.898Z,93849.88
2023-05-13T16:48:16.601Z,93850.59
2023-05-13T16:53:19.662Z,93860.09
2023-05-13T16:58:21.332Z,93851.31
2023-05-13T17:03:22.993Z,93847.88
2023-05-13T17:08:26.005Z,93848.28
2023-05-13T17:13:36.345Z,93847.66
2023-05-13T17:18:37.974Z,93839.06
2023-05-13T17:23:40.990Z,93846.91
2023-05-13T17:28:42.740Z,93842.56
2023-05-13T17:33:45.733Z,93836.53
2023-05-13T17:38:49.227Z,93844.00
2023-05-13T17:43:50.811Z,93852.53
2023-05-13T17:48:52.542Z,93849.72
2023-05-13T17:53:58.202Z,93850.00
2023-05-13T17:58:59.789Z,93854.06
2023-05-13T18:04:01.373Z,93851.69
2023-05-13T18:09:04.409Z,93853.47
2023-05-13T18:14:08.787Z,93851.22
2023-05-13T18:19:10.412Z,93858.69
2023-05-13T18:24:16.336Z,93855.63
2023-05-13T18:29:19.335Z,93862.06
2023-05-13T18:34:20.921Z,93857.59
2023-05-13T18:39:26.496Z,93859.66
2023-05-13T18:44:28.288Z,93861.81
2023-05-13T18:49:50.084Z,93870.22
2023-05-13T18:54:53.099Z,93869.50
2023-05-13T18:59:57.589Z,93865.63
2023-05-13T19:05:01.925Z,93871.06
2023-05-13T19:10:08.036Z,93871.41
2023-05-13T19:15:10.462Z,93874.09
2023-05-13T19:20:14.951Z,93880.19
2023-05-13T19:25:20.521Z,93880.25
2023-05-13T19:30:24.337Z,93885.91
2023-05-13T19:35:28.537Z,93889.59
2023-05-13T19:40:31.582Z,93892.13
2023-05-13T19:45:33.446Z,93887.34
2023-05-13T19:50:35.063Z,93903.53
2023-05-13T19:55:39.163Z,93895.44
2023-05-13T20:00:40.837Z,93898.06
2023-05-13T20:05:42.541Z,93897.69
2023-05-13T20:10:45.613Z,93897.53
2023-05-13T20:15:47.257Z,93903.38
2023-05-13T20:20:48.832Z,93895.13
2023-05-13T20:25:52.302Z,93899.84
2023-05-13T20:30:55.268Z,93895.69
2023-05-13T20:35:58.981Z,93896.59
2023-05-13T20:47:05.551Z,93890.00
2023-05-13T20:52:09.450Z,93882.25
2023-05-13T20:57:12.681Z,93882.81
2023-05-13T21:02:15.725Z,93880.94
2023-05-13T21:07:17.410Z,93884.06
2023-05-13T21:12:19.016Z,93883.84
2023-05-13T21:17:22.055Z,93871.94
2023-05-13T21:22:23.658Z,93864.69
2023-05-13T21:27:27.612Z,93867.03
2023-05-13T21:32:30.695Z,93870.06
2023-05-13T21:37:34.729Z,93866.13
2023-05-13T21:42:36.334Z,93858.97
2023-05-13T21:47:39.432Z,93861.75
2023-05-13T21:52:41.133Z,93858.16
2023-05-13T21:57:45.032Z,93858.78
2023-05-13T22:02:52.729Z,93848.50
2023-05-13T22:07:56.999Z,93856.94
2023-05-13T22:12:58.617Z,93855.97
2023-05-13T22:18:01.649Z,93860.41
2023-05-13T22:23:03.440Z,93848.66
2023-05-13T22:28:05.045Z,93843.53
2023-05-13T22:33:08.051Z,93844.13
2023-05-13T22:38:09.763Z,93844.34
2023-05-13T22:43:11.427Z,93845.72
2023-05-13T22:48:14.291Z,93840.75
2023-05-13T22:53:15.965Z,93843.25
2023-05-13T22:58:17.984Z,93838.66
2023-05-13T23:03:20.920Z,93834.22
2023-05-13T23:08:22.670Z,93838.22
2023-05-13T23:13:27.005Z,93822.63
2023-05-13T23:18:32.324Z,93831.63
2023-05-13T23:23:33.986Z,93823.16
2023-05-13T23:28:35.588Z,93822.41
2023-05-13T23:33:38.721Z,93823.00
2023-05-13T23:38:40.372Z,93819.16
2023-05-13T23:43:49.429Z,93799.00
2023-05-13T23:48:52.511Z,93807.28
2023-05-13T23:54:01.407Z,93794.41
2023-05-13T23:59:02.970Z,93793.09
